createdAt,value
2023-01-21T00:00:20.197Z,99519.19
2023-01-21T00:02:48.919Z,99516.41
2023-01-21T00:05:17.808Z,99519.22
2023-01-21T00:12:50.711Z,99529.41
2023-01-21T00:15:18.265Z,99523.81
2023-01-21T00:17:45.564Z,99525.31
2023-01-21T00:20:13.397Z,99517.38
2023-01-21T00:22:40.988Z,99527.44
2023-01-21T00:25:09.353Z,99523.63
2023-01-21T00:27:36.839Z,99533.16
2023-01-21T00:32:46.946Z,99524.63
2023-01-21T00:35:14.712Z,99526.94
2023-01-21T00:37:42.026Z,99525.28
2023-01-21T00:40:11.484Z,99519.84
2023-01-21T00:42:38.967Z,99532.34
2023-01-21T00:45:08.757Z,99528.56
2023-01-21T00:47:36.352Z,99521.03
2023-01-21T00:53:42.824Z,99530.66
2023-01-21T00:56:13.550Z,99540.56
2023-01-21T00:58:42.729Z,99543.19
2023-01-21T01:01:13.381Z,99538.56
2023-01-21T01:03:43.738Z,99542.72
2023-01-21T01:06:16.140Z,99541.00
2023-01-21T01:08:47.089Z,99546.28
2023-01-21T01:11:16.159Z,99547.94
2023-01-21T01:13:45.657Z,99550.25
2023-01-21T01:16:16.476Z,99548.25
2023-01-21T01:18:45.842Z,99551.56
2023-01-21T01:21:17.589Z,99557.97
2023-01-21T01:23:48.736Z,99550.53
2023-01-21T01:26:19.783Z,99551.88
2023-01-21T01:28:49.208Z,99561.44
2023-01-21T01:31:21.489Z,99556.63
2023-01-21T01:33:50.594Z,99550.50
2023-01-21T01:36:23.696Z,99556.06
2023-01-21T01:38:55.125Z,99554.94
2023-01-21T01:41:27.504Z,99551.75
2023-01-21T01:44:00.399Z,99555.19
2023-01-21T01:46:31.871Z,99550.44
2023-01-21T01:49:09.179Z,99545.28
2023-01-21T01:51:48.989Z,99546.41
2023-01-21T01:54:24.186Z,99550.84
2023-01-21T01:57:01.212Z,99561.25
2023-01-21T01:59:33.145Z,99557.63
2023-01-21T02:02:09.951Z,99560.00
2023-01-21T02:04:45.422Z,99570.03
2023-01-21T02:07:15.039Z,99567.47
2023-01-21T02:09:45.248Z,99572.66
2023-01-21T02:17:42.641Z,99582.66
2023-01-21T02:20:59.364Z,99582.56
2023-01-21T02:23:57.039Z,99570.44
2023-01-21T02:27:18.356Z,99579.44
2023-01-21T02:31:00.487Z,99579.69
2023-01-21T02:34:06.249Z,99579.38
2023-01-21T02:36:51.497Z,99577.94
2023-01-21T02:39:36.631Z,99592.16
2023-01-21T02:42:11.653Z,99588.25
2023-01-21T02:44:44.209Z,99594.56
2023-01-21T02:47:32.330Z,99601.09
2023-01-21T02:50:09.428Z,99599.63
2023-01-21T02:52:38.063Z,99593.53
2023-01-21T02:55:13.858Z,99597.44
2023-01-21T02:57:48.368Z,99598.63
2023-01-21T03:00:25.463Z,99597.16
2023-01-21T03:03:26.133Z,99600.53
2023-01-21T03:06:46.200Z,99600.22
2023-01-21T03:09:24.072Z,99598.13
2023-01-21T03:12:09.168Z,99604.22
2023-01-21T03:15:05.971Z,99606.66
2023-01-21T03:17:42.812Z,99609.41
2023-01-21T03:20:19.161Z,99609.50
2023-01-21T03:22:53.837Z,99612.53
2023-01-21T03:25:27.730Z,99621.59
2023-01-21T03:27:58.106Z,99610.13
2023-01-21T03:30:29.183Z,99617.81
2023-01-21T03:38:10.196Z,99618.41
2023-01-21T03:40:43.298Z,99617.25
2023-01-21T03:43:11.001Z,99615.78
2023-01-21T03:45:49.368Z,99619.72
2023-01-21T03:48:28.603Z,99624.34
2023-01-21T03:51:02.730Z,99626.66
2023-01-21T03:53:32.900Z,99629.00
2023-01-21T03:56:01.513Z,99636.06
2023-01-21T03:58:31.072Z,99628.25
2023-01-21T04:00:59.750Z,99635.09
2023-01-21T04:03:28.798Z,99629.53
2023-01-21T04:05:57.463Z,99632.41
2023-01-21T04:08:26.177Z,99636.75
2023-01-21T04:10:56.299Z,99632.53
2023-01-21T04:13:24.981Z,99627.56
2023-01-21T04:15:53.668Z,99631.19
2023-01-21T04:18:22.391Z,99636.75
2023-01-21T04:20:51.073Z,99636.16
2023-01-21T04:23:19.782Z,99629.22
2023-01-21T04:25:49.829Z,99639.69
2023-01-21T04:28:21.250Z,99644.81
2023-01-21T04:30:50.614Z,99642.38
2023-01-21T04:33:19.611Z,99648.63
2023-01-21T04:35:48.353Z,99642.44
2023-01-21T04:38:17.090Z,99646.38
2023-01-21T04:40:46.006Z,99647.59
2023-01-21T04:43:14.754Z,99649.16
2023-01-21T04:45:44.923Z,99648.66
2023-01-21T04:48:13.689Z,99651.44
2023-01-21T04:50:42.403Z,99643.66
2023-01-21T04:53:11.226Z,99646.69
2023-01-21T04:55:40.097Z,99639.59
2023-01-21T05:03:08.718Z,99652.09
2023-01-21T05:05:36.141Z,99656.59
2023-01-21T05:08:03.743Z,99658.84
2023-01-21T05:10:31.170Z,99665.03
2023-01-21T05:12:59.799Z,99667.13
2023-01-21T05:15:27.335Z,99674.22
2023-01-21T05:17:56.083Z,99669.31
2023-01-21T05:20:26.447Z,99676.47
2023-01-21T05:22:57.942Z,99671.19
2023-01-21T05:25:29.062Z,99672.34
2023-01-21T05:27:58.752Z,99674.53
2023-01-21T05:30:27.949Z,99678.03
2023-01-21T05:32:58.241Z,99681.66
2023-01-21T05:35:28.945Z,99683.47
2023-01-21T05:38:00.400Z,99683.91
2023-01-21T05:40:29.598Z,99680.59
2023-01-21T05:42:58.943Z,99678.34
2023-01-21T05:45:28.599Z,99677.59
2023-01-21T05:47:57.576Z,99683.38
2023-01-21T05:50:32.984Z,99675.94
2023-01-21T05:53:03.200Z,99680.06
2023-01-21T05:55:33.170Z,99676.47
2023-01-21T05:58:02.797Z,99673.81
2023-01-21T06:00:31.964Z,99685.09
2023-01-21T06:03:03.142Z,99688.19
2023-01-21T06:05:34.383Z,99689.09
2023-01-21T06:08:04.487Z,99677.06
2023-01-21T06:10:34.213Z,99680.97
2023-01-21T06:13:03.809Z,99686.75
2023-01-21T06:15:33.741Z,99690.44
2023-01-21T06:18:02.789Z,99689.22
2023-01-21T06:20:33.847Z,99687.34
2023-01-21T06:23:04.223Z,99689.56
2023-01-21T06:25:34.528Z,99686.59
2023-01-21T06:28:04.333Z,99700.84
2023-01-21T06:30:34.061Z,99700.16
2023-01-21T06:33:04.400Z,99697.53
2023-01-21T06:35:36.025Z,99689.94
2023-01-21T06:38:05.251Z,99686.00
2023-01-21T06:40:34.640Z,99698.34
2023-01-21T06:43:04.856Z,99696.25
2023-01-21T06:45:38.925Z,99699.50
2023-01-21T06:48:08.223Z,99698.28
2023-01-21T06:50:41.132Z,99697.44
2023-01-21T06:53:10.388Z,99702.88
2023-01-21T06:55:39.548Z,99706.22
2023-01-21T06:58:08.693Z,99700.66
2023-01-21T07:01:04.423Z,99697.59
2023-01-21T07:03:33.261Z,99704.22
2023-01-21T07:06:03.822Z,99700.06
2023-01-21T07:08:36.598Z,99703.69
2023-01-21T07:11:09.703Z,99704.88
2023-01-21T07:13:41.533Z,99711.19
2023-01-21T07:16:11.190Z,99711.88
2023-01-21T07:18:41.622Z,99712.84
2023-01-21T07:21:14.518Z,99703.69
2023-01-21T07:23:45.090Z,99706.59
2023-01-21T07:26:19.269Z,99720.06
2023-01-21T07:28:50.525Z,99717.69
2023-01-21T07:31:19.834Z,99707.66
2023-01-21T07:33:50.263Z,99705.03
2023-01-21T07:36:20.937Z,99713.31
2023-01-21T07:38:50.166Z,99714.75
2023-01-21T07:41:19.751Z,99718.91
2023-01-21T07:43:49.848Z,99713.91
2023-01-21T07:46:20.290Z,99715.28
2023-01-21T07:48:51.194Z,99710.25
2023-01-21T07:51:23.668Z,99718.00
2023-01-21T07:53:54.056Z,99720.78
2023-01-21T07:56:25.186Z,99714.69
2023-01-21T07:58:54.029Z,99719.41
2023-01-21T08:01:27.108Z,99709.19
2023-01-21T08:03:55.987Z,99719.13
2023-01-21T08:06:27.205Z,99715.47
2023-01-21T08:08:56.869Z,99721.72
2023-01-21T08:11:26.309Z,99711.06
2023-01-21T08:13:55.547Z,99723.25
2023-01-21T08:16:24.559Z,99719.22
2023-01-21T08:18:53.455Z,99721.25
2023-01-21T08:21:23.106Z,99720.72
2023-01-21T08:23:53.475Z,99716.72
2023-01-21T08:26:24.777Z,99718.53
2023-01-21T08:28:55.807Z,99718.16
2023-01-21T08:31:41.137Z,99717.47
2023-01-21T08:34:09.861Z,99721.25
2023-01-21T08:36:40.285Z,99725.03
2023-01-21T08:39:11.846Z,99723.06
2023-01-21T08:41:41.417Z,99717.94
2023-01-21T08:44:10.496Z,99722.63
2023-01-21T08:46:39.639Z,99720.72
2023-01-21T08:49:09.577Z,99716.09
2023-01-21T08:51:38.654Z,99716.53
2023-01-21T08:54:10.787Z,99709.81
2023-01-21T08:56:40.017Z,99716.69
2023-01-21T08:59:09.451Z,99718.31
2023-01-21T09:01:41.253Z,99717.88
2023-01-21T09:04:10.764Z,99718.84
2023-01-21T09:06:39.720Z,99721.84
2023-01-21T09:09:12.939Z,99722.00
2023-01-21T09:11:41.685Z,99723.91
2023-01-21T09:14:10.314Z,99728.19
2023-01-21T09:16:39.214Z,99720.97
2023-01-21T09:19:07.953Z,99730.59
2023-01-21T09:21:37.975Z,99731.56
2023-01-21T09:24:09.287Z,99728.28
2023-01-21T09:26:37.994Z,99725.53
2023-01-21T09:29:06.674Z,99729.97
2023-01-21T09:31:35.669Z,99729.69
2023-01-21T09:34:06.591Z,99725.25
2023-01-21T09:36:36.378Z,99730.81
2023-01-21T09:39:06.246Z,99734.75
2023-01-21T09:41:40.204Z,99734.66
2023-01-21T09:44:21.991Z,99739.41
2023-01-21T09:46:59.592Z,99738.81
2023-01-21T09:49:32.188Z,99733.53
2023-01-21T09:52:17.800Z,99734.66
2023-01-21T09:54:46.778Z,99726.75
2023-01-21T09:58:07.685Z,99726.63
2023-01-21T10:00:45.232Z,99734.06
2023-01-21T10:03:28.961Z,99729.31
2023-01-21T10:06:22.985Z,99727.97
2023-01-21T10:09:24.238Z,99727.34
2023-01-21T10:12:22.550Z,99717.97
2023-01-21T10:15:31.626Z,99718.13
2023-01-21T10:18:04.711Z,99713.50
2023-01-21T10:20:41.529Z,99727.28
2023-01-21T10:23:21.735Z,99714.28
2023-01-21T10:25:51.989Z,99717.78
2023-01-21T10:28:26.067Z,99712.13
2023-01-21T10:31:01.769Z,99716.22
2023-01-21T10:33:34.765Z,99713.50
2023-01-21T10:36:43.816Z,99713.94
2023-01-21T10:39:26.646Z,99703.41
2023-01-21T10:42:19.111Z,99704.75
2023-01-21T10:44:58.878Z,99700.59
2023-01-21T10:47:44.348Z,99695.88
2023-01-21T10:50:40.814Z,99695.56
2023-01-21T10:53:22.265Z,99695.56
2023-01-21T10:56:15.226Z,99691.97
2023-01-21T10:58:49.894Z,99688.34
2023-01-21T11:01:28.948Z,99691.63
2023-01-21T11:04:05.956Z,99692.84
2023-01-21T11:06:37.592Z,99687.78
2023-01-21T11:09:12.264Z,99684.09
2023-01-21T11:11:42.955Z,99683.47
2023-01-21T11:14:13.741Z,99683.78
2023-01-21T11:16:49.219Z,99676.19
2023-01-21T11:19:26.215Z,99673.56
2023-01-21T11:22:05.188Z,99673.56
2023-01-21T11:24:45.350Z,99669.31
2023-01-21T11:27:22.418Z,99671.78
2023-01-21T11:29:52.673Z,99673.31
2023-01-21T11:32:24.332Z,99661.97
2023-01-21T11:35:04.820Z,99662.13
2023-01-21T11:37:35.128Z,99666.72
2023-01-21T11:40:14.954Z,99657.22
2023-01-21T11:42:49.630Z,99653.06
2023-01-21T11:45:30.831Z,99645.31
2023-01-21T11:48:04.408Z,99646.78
2023-01-21T11:50:38.705Z,99629.50
2023-01-21T11:53:17.783Z,99634.59
2023-01-21T11:55:51.534Z,99621.63
2023-01-21T11:58:30.249Z,99623.28
2023-01-21T12:01:03.631Z,99627.22
2023-01-21T12:03:38.565Z,99626.53
2023-01-21T12:06:10.745Z,99622.94
2023-01-21T12:08:42.738Z,99616.97
2023-01-21T12:11:12.174Z,99623.41
2023-01-21T12:13:54.748Z,99616.34
2023-01-21T12:16:36.200Z,99611.41
2023-01-21T12:19:40.233Z,99621.94
2023-01-21T12:22:41.373Z,99617.03
2023-01-21T12:25:52.805Z,99606.75
2023-01-21T12:28:50.555Z,99613.69
2023-01-21T12:31:33.020Z,99620.25
2023-01-21T12:34:17.287Z,99608.56
2023-01-21T12:36:53.154Z,99612.22
2023-01-21T12:39:30.407Z,99610.56
2023-01-21T12:42:12.423Z,99610.56
2023-01-21T12:44:52.577Z,99611.41
2023-01-21T12:47:38.267Z,99603.78
2023-01-21T12:50:28.263Z,99600.88
2023-01-21T12:53:16.312Z,99594.63
2023-01-21T12:56:04.113Z,99588.50
2023-01-21T12:58:38.728Z,99592.81
2023-01-21T13:01:14.910Z,99576.84
2023-01-21T13:04:01.143Z,99579.13
2023-01-21T13:06:53.669Z,99580.59
2023-01-21T13:09:36.255Z,99570.41
2023-01-21T13:12:39.614Z,99566.78
2023-01-21T13:15:20.087Z,99563.00
2023-01-21T13:17:57.234Z,99561.34
2023-01-21T13:20:27.044Z,99557.41
2023-01-21T13:23:11.726Z,99556.41
2023-01-21T13:25:52.716Z,99549.47
2023-01-21T13:28:36.164Z,99542.91
2023-01-21T13:31:19.377Z,99541.72
2023-01-21T13:34:03.037Z,99534.47
2023-01-21T13:36:55.804Z,99523.28
2023-01-21T13:39:45.188Z,99524.75
2023-01-21T13:42:38.791Z,99521.81
2023-01-21T13:45:31.764Z,99521.50
2023-01-21T13:48:58.867Z,99527.09
2023-01-21T13:51:45.122Z,99527.91
2023-01-21T13:54:55.551Z,99526.09
2023-01-21T13:57:45.780Z,99525.44
2023-01-21T14:00:22.311Z,99530.84
2023-01-21T14:03:04.183Z,99520.81
2023-01-21T14:05:42.364Z,99515.34
2023-01-21T14:08:20.467Z,99512.88
2023-01-21T14:11:00.367Z,99505.94
2023-01-21T14:14:18.817Z,99498.03
2023-01-21T14:17:27.821Z,99504.97
2023-01-21T14:21:13.409Z,99493.06
2023-01-21T14:24:16.885Z,99490.09
2023-01-21T14:27:17.847Z,99490.91
2023-01-21T14:29:56.419Z,99484.47
2023-01-21T14:36:17.257Z,99481.84
2023-01-21T14:39:07.457Z,99483.16
2023-01-21T14:42:12.735Z,99478.19
2023-01-21T14:45:02.542Z,99486.75
2023-01-21T14:47:50.171Z,99486.09
2023-01-21T14:51:14.435Z,99481.47
2023-01-21T14:58:53.836Z,99465.34
2023-01-21T15:01:34.608Z,99476.25
2023-01-21T15:04:07.137Z,99469.81
2023-01-21T15:06:40.157Z,99473.56
2023-01-21T15:09:21.646Z,99471.28
2023-01-21T15:11:58.352Z,99464.00
2023-01-21T15:14:31.780Z,99460.38
2023-01-21T15:17:02.052Z,99465.66
2023-01-21T15:19:34.528Z,99472.63
2023-01-21T15:22:27.401Z,99461.25
2023-01-21T15:25:34.457Z,99463.38
2023-01-21T15:28:43.592Z,99463.06
2023-01-21T15:31:45.436Z,99466.19
2023-01-21T15:34:19.991Z,99470.97
2023-01-21T15:37:16.673Z,99459.09
2023-01-21T15:40:26.559Z,99465.22
2023-01-21T15:43:05.764Z,99460.72
2023-01-21T15:45:49.919Z,99459.75
2023-01-21T15:49:15.897Z,99457.91
2023-01-21T15:52:01.578Z,99466.50
2023-01-21T15:54:41.650Z,99461.25
2023-01-21T15:57:37.958Z,99459.09
2023-01-21T16:00:35.018Z,99459.44
2023-01-21T16:03:23.703Z,99459.25
2023-01-21T16:06:05.737Z,99457.78
2023-01-21T16:09:02.771Z,99457.78
2023-01-21T16:12:00.184Z,99454.97
2023-01-21T16:14:52.748Z,99454.47
2023-01-21T16:22:08.269Z,99460.44
2023-01-21T16:24:47.564Z,99460.72
2023-01-21T16:27:24.731Z,99457.28
2023-01-21T16:30:02.517Z,99455.50
2023-01-21T16:32:37.345Z,99453.34
2023-01-21T16:35:12.574Z,99449.22
2023-01-21T16:38:24.752Z,99450.22
2023-01-21T16:41:25.280Z,99448.88
2023-01-21T16:43:59.600Z,99444.94
2023-01-21T16:46:34.991Z,99449.72
2023-01-21T16:49:16.816Z,99443.28
2023-01-21T16:51:56.706Z,99444.13
2023-01-21T16:54:31.459Z,99440.50
2023-01-21T16:57:15.348Z,99447.91
2023-01-21T16:59:49.462Z,99438.69
2023-01-21T17:02:23.988Z,99442.97
2023-01-21T17:04:56.114Z,99447.75
2023-01-21T17:07:31.788Z,99442.31
2023-01-21T17:10:18.805Z,99452.34
2023-01-21T17:12:53.680Z,99445.94
2023-01-21T17:15:33.420Z,99444.28
2023-01-21T17:18:04.501Z,99448.75
2023-01-21T17:20:42.618Z,99444.94
2023-01-21T17:23:19.220Z,99447.41
2023-01-21T17:25:58.196Z,99442.31
2023-01-21T17:28:33.597Z,99447.25
2023-01-21T17:31:28.076Z,99447.25
2023-01-21T17:34:20.353Z,99450.88
2023-01-21T17:36:52.603Z,99448.22
2023-01-21T17:40:01.365Z,99449.06
2023-01-21T17:42:42.602Z,99449.72
2023-01-21T17:45:23.808Z,99453.84
2023-01-21T17:48:08.668Z,99456.50
2023-01-21T17:50:39.064Z,99465.06
2023-01-21T17:53:21.623Z,99462.59
2023-01-21T17:56:00.940Z,99466.03
2023-01-21T17:58:56.058Z,99465.22
2023-01-21T18:01:26.320Z,99464.72
2023-01-21T18:03:55.237Z,99472.97
2023-01-21T18:06:29.310Z,99470.00
2023-01-21T18:08:59.210Z,99465.41
2023-01-21T18:11:28.354Z,99470.00
2023-01-21T18:13:59.519Z,99465.22
2023-01-21T18:16:28.776Z,99470.16
2023-01-21T18:18:58.237Z,99470.97
2023-01-21T18:21:27.439Z,99467.69
2023-01-21T18:24:13.016Z,99477.75
2023-01-21T18:26:42.341Z,99472.63
2023-01-21T18:29:13.453Z,99471.31
2023-01-21T18:31:42.405Z,99473.16
2023-01-21T18:34:27.164Z,99476.59
2023-01-21T18:36:57.757Z,99484.53
2023-01-21T18:39:26.594Z,99486.69
2023-01-21T18:41:55.271Z,99481.88
2023-01-21T18:44:25.890Z,99487.81
2023-01-21T18:46:54.580Z,99479.25
2023-01-21T18:49:23.323Z,99478.91
2023-01-21T18:51:52.491Z,99481.22
2023-01-21T18:54:21.293Z,99475.78
2023-01-21T18:56:50.036Z,99477.94
2023-01-21T18:59:22.645Z,99475.81
2023-01-21T19:01:52.870Z,99465.56
2023-01-21T19:04:21.598Z,99473.31
2023-01-21T19:06:51.088Z,99480.25
2023-01-21T19:09:23.109Z,99479.59
2023-01-21T19:11:52.896Z,99475.47
2023-01-21T19:14:23.213Z,99484.03
2023-01-21T19:16:53.425Z,99486.16
2023-01-21T19:19:22.263Z,99479.94
2023-01-21T19:21:51.149Z,99471.50
2023-01-21T19:24:19.996Z,99479.94
2023-01-21T19:26:49.088Z,99482.41
2023-01-21T19:29:22.920Z,99483.22
2023-01-21T19:31:55.120Z,99479.59
2023-01-21T19:34:26.212Z,99481.75
2023-01-21T19:36:55.152Z,99483.22
2023-01-21T19:39:25.433Z,99482.41
2023-01-21T19:42:07.299Z,99478.63
2023-01-21T19:44:37.144Z,99488.03
2023-01-21T19:47:15.948Z,99486.88
2023-01-21T19:49:44.810Z,99489.84
2023-01-21T19:52:15.591Z,99499.41
2023-01-21T19:54:44.916Z,99502.53
2023-01-21T19:57:16.720Z,99508.00
2023-01-21T19:59:47.331Z,99508.47
2023-01-21T20:02:17.812Z,99513.44
2023-01-21T20:04:47.519Z,99526.97
2023-01-21T20:07:18.046Z,99518.91
2023-01-21T20:09:46.907Z,99522.19
2023-01-21T20:12:15.643Z,99521.88
2023-01-21T20:14:44.360Z,99523.53
2023-01-21T20:17:16.728Z,99524.53
2023-01-21T20:19:48.369Z,99537.53
2023-01-21T20:22:17.481Z,99538.03
2023-01-21T20:24:46.262Z,99537.72
2023-01-21T20:27:16.206Z,99538.69
2023-01-21T20:29:55.506Z,99549.25
2023-01-21T20:32:26.529Z,99547.94
2023-01-21T20:34:55.483Z,99546.28
2023-01-21T20:37:24.554Z,99540.38
2023-01-21T20:39:53.637Z,99546.94
2023-01-21T20:42:22.656Z,99548.59
2023-01-21T20:44:52.306Z,99553.56
2023-01-21T20:47:32.500Z,99558.50
2023-01-21T20:50:21.011Z,99554.22
2023-01-21T20:52:51.829Z,99563.94
2023-01-21T20:55:24.350Z,99558.16
2023-01-21T20:57:53.995Z,99566.25
2023-01-21T21:00:25.710Z,99566.13
2023-01-21T21:02:56.347Z,99566.78
2023-01-21T21:05:28.431Z,99562.13
2023-01-21T21:07:57.677Z,99564.94
2023-01-21T21:10:34.652Z,99573.34
2023-01-21T21:13:04.277Z,99577.31
2023-01-21T21:15:36.384Z,99583.44
2023-01-21T21:18:06.144Z,99578.16
2023-01-21T21:20:39.900Z,99591.53
2023-01-21T21:23:16.726Z,99592.00
2023-01-21T21:25:48.707Z,99588.38
2023-01-21T21:28:19.722Z,99595.16
2023-01-21T21:30:49.178Z,99587.88
2023-01-21T21:33:23.180Z,99589.84
2023-01-21T21:35:53.257Z,99589.84
2023-01-21T21:38:22.979Z,99592.19
2023-01-21T21:40:53.321Z,99593.81
2023-01-21T21:43:40.429Z,99592.53
2023-01-21T21:46:42.251Z,99592.53
2023-01-21T21:49:11.790Z,99599.59
2023-01-21T21:51:45.925Z,99602.22
2023-01-21T21:54:18.273Z,99603.91
2023-01-21T21:56:47.720Z,99605.19
